LRC641 KLAX-MGGT
Flight info
| Callsign | LRC641 |
|---|---|
| Flight time | N/A |
| Altitude | 39000 |
| Route | PNDAH2 TCATE DCT ASUTA J93 AXASA UT41 CUU UJ38 CVM UJ15 TAM DCT OMPAN DCT ASOKU UW3 AUR |
| Aircraft | A20N/M-SDE2E3FGHIRWXY/LB1 |
Departure
| Time | N/A |
|---|---|
| Airport | Los Angeles International Airport (KLAX) |
Arrival
| Time | 2026-04-29 01:57 |
|---|---|
| Airport | La Aurora International Airport (MGGT) |
| Time | Latitude | Longitude | Altitude | Speed | Heading |
|---|---|---|---|---|---|
| 2026-04-28 23:09 | 29.23693 | -107.14658 | 37403 ft | 499 kts | 124° |
| 2026-04-28 23:10 | 29.19167 | -107.04212 | 37409 ft | 501 kts | 123° |
| 2026-04-28 23:10 | 29.15756 | -106.96343 | 37414 ft | 501 kts | 123° |
| 2026-04-28 23:11 | 29.12653 | -106.89200 | 37423 ft | 502 kts | 123° |
| 2026-04-28 23:11 | 29.09549 | -106.82062 | 37413 ft | 503 kts | 124° |
| 2026-04-28 23:12 | 29.06448 | -106.74937 | 37416 ft | 501 kts | 123° |
| 2026-04-28 23:12 | 29.03331 | -106.67802 | 37420 ft | 503 kts | 123° |
| 2026-04-28 23:13 | 29.00199 | -106.60634 | 37411 ft | 504 kts | 123° |
| 2026-04-28 23:13 | 28.97077 | -106.53506 | 37394 ft | 503 kts | 123° |
| 2026-04-28 23:14 | 28.93936 | -106.46361 | 37388 ft | 505 kts | 123° |
| 2026-04-28 23:14 | 28.90781 | -106.39185 | 37360 ft | 506 kts | 123° |
| 2026-04-28 23:15 | 28.87613 | -106.31989 | 37333 ft | 506 kts | 123° |
| 2026-04-28 23:15 | 28.84466 | -106.24843 | 37303 ft | 504 kts | 123° |
| 2026-04-28 23:16 | 28.81292 | -106.17664 | 37276 ft | 505 kts | 123° |
| 2026-04-28 23:16 | 28.78128 | -106.10522 | 37243 ft | 506 kts | 123° |
| 2026-04-28 23:17 | 28.75058 | -106.03589 | 37210 ft | 504 kts | 123° |
| 2026-04-28 23:17 | 28.71836 | -105.96513 | 37168 ft | 502 kts | 127° |
| 2026-04-28 23:18 | 28.68092 | -105.89854 | 37158 ft | 497 kts | 131° |
| 2026-04-28 23:18 | 28.64205 | -105.83396 | 37158 ft | 498 kts | 131° |
| 2026-04-28 23:19 | 28.60302 | -105.76884 | 37166 ft | 499 kts | 131° |
| 2026-04-28 23:19 | 28.56422 | -105.70390 | 37163 ft | 498 kts | 131° |
| 2026-04-28 23:20 | 28.52534 | -105.63882 | 37172 ft | 497 kts | 131° |
| 2026-04-28 23:20 | 28.48646 | -105.57402 | 37164 ft | 498 kts | 131° |
| 2026-04-28 23:21 | 28.44761 | -105.50934 | 37154 ft | 496 kts | 131° |
| 2026-04-28 23:21 | 28.40853 | -105.44453 | 37153 ft | 497 kts | 130° |
| 2026-04-28 23:22 | 28.36977 | -105.38023 | 37163 ft | 498 kts | 130° |
| 2026-04-28 23:22 | 28.33032 | -105.31475 | 37173 ft | 497 kts | 131° |
| 2026-04-28 23:23 | 28.29120 | -105.25000 | 37194 ft | 496 kts | 131° |
| 2026-04-28 23:23 | 28.25213 | -105.18549 | 37202 ft | 498 kts | 130° |
| 2026-04-28 23:24 | 28.21302 | -105.12093 | 37193 ft | 497 kts | 130° |
| 2026-04-28 23:24 | 28.17398 | -105.05660 | 37182 ft | 498 kts | 130° |
| 2026-04-28 23:25 | 28.13490 | -104.99226 | 37175 ft | 497 kts | 130° |
| 2026-04-28 23:25 | 28.09547 | -104.92743 | 37191 ft | 496 kts | 130° |
| 2026-04-28 23:26 | 28.05648 | -104.86349 | 37211 ft | 495 kts | 130° |
| 2026-04-28 23:26 | 28.01729 | -104.79947 | 37237 ft | 496 kts | 130° |
| 2026-04-28 23:27 | 27.97798 | -104.73528 | 37248 ft | 497 kts | 130° |
| 2026-04-28 23:27 | 27.93850 | -104.67082 | 37243 ft | 497 kts | 130° |
| 2026-04-28 23:28 | 27.89908 | -104.60654 | 37225 ft | 497 kts | 130° |
| 2026-04-28 23:28 | 27.85954 | -104.54215 | 37219 ft | 496 kts | 130° |
| 2026-04-28 23:29 | 27.82013 | -104.47812 | 37225 ft | 496 kts | 130° |
| 2026-04-28 23:29 | 27.78085 | -104.41432 | 37230 ft | 496 kts | 130° |
| 2026-04-28 23:30 | 27.74140 | -104.35035 | 37240 ft | 495 kts | 129° |
| 2026-04-28 23:30 | 27.70183 | -104.28634 | 37230 ft | 494 kts | 130° |
| 2026-04-28 23:31 | 27.66246 | -104.22289 | 37226 ft | 494 kts | 130° |
| 2026-04-28 23:31 | 27.62321 | -104.15960 | 37214 ft | 495 kts | 130° |
| 2026-04-28 23:32 | 27.58356 | -104.09577 | 37196 ft | 496 kts | 130° |
| 2026-04-28 23:32 | 27.54416 | -104.03236 | 37187 ft | 495 kts | 130° |
| 2026-04-28 23:33 | 27.50478 | -103.96911 | 37179 ft | 494 kts | 129° |
| 2026-04-28 23:33 | 27.46530 | -103.90572 | 37182 ft | 494 kts | 130° |
| 2026-04-28 23:34 | 27.42587 | -103.84259 | 37198 ft | 495 kts | 130° |
| 2026-04-28 23:34 | 27.38640 | -103.77944 | 37215 ft | 495 kts | 130° |
| 2026-04-28 23:35 | 27.34673 | -103.71608 | 37233 ft | 495 kts | 130° |
| 2026-04-28 23:35 | 27.30699 | -103.65274 | 37238 ft | 497 kts | 129° |
| 2026-04-28 23:36 | 27.26744 | -103.58968 | 37221 ft | 496 kts | 129° |
| 2026-04-28 23:36 | 27.22748 | -103.52611 | 37190 ft | 495 kts | 130° |
| 2026-04-28 23:37 | 27.18798 | -103.46341 | 37149 ft | 495 kts | 129° |
| 2026-04-28 23:37 | 27.14829 | -103.40047 | 37140 ft | 496 kts | 129° |
| 2026-04-28 23:38 | 27.10815 | -103.33692 | 37138 ft | 496 kts | 130° |
| 2026-04-28 23:38 | 27.06830 | -103.27388 | 37155 ft | 495 kts | 130° |
| 2026-04-28 23:39 | 27.02852 | -103.21110 | 37172 ft | 495 kts | 130° |
| 2026-04-28 23:39 | 26.98867 | -103.14825 | 37177 ft | 495 kts | 129° |
| 2026-04-28 23:40 | 26.94862 | -103.08516 | 37167 ft | 495 kts | 130° |
| 2026-04-28 23:40 | 26.90875 | -103.02246 | 37160 ft | 494 kts | 129° |
| 2026-04-28 23:41 | 26.86889 | -102.95990 | 37157 ft | 495 kts | 130° |
| 2026-04-28 23:41 | 26.82874 | -102.89690 | 37166 ft | 495 kts | 130° |
| 2026-04-28 23:42 | 26.78874 | -102.83427 | 37187 ft | 495 kts | 129° |
| 2026-04-28 23:42 | 26.74881 | -102.77187 | 37212 ft | 496 kts | 129° |
| 2026-04-28 23:43 | 26.70856 | -102.70904 | 37217 ft | 496 kts | 129° |
| 2026-04-28 23:43 | 26.66836 | -102.64626 | 37188 ft | 495 kts | 129° |
| 2026-04-28 23:44 | 26.62815 | -102.58368 | 37153 ft | 496 kts | 129° |
| 2026-04-28 23:44 | 26.58795 | -102.52116 | 37123 ft | 496 kts | 129° |
| 2026-04-28 23:45 | 26.54785 | -102.45887 | 37101 ft | 495 kts | 129° |
| 2026-04-28 23:45 | 26.50768 | -102.39658 | 37100 ft | 496 kts | 129° |
| 2026-04-28 23:46 | 26.46720 | -102.33395 | 37115 ft | 497 kts | 129° |
| 2026-04-28 23:46 | 26.42636 | -102.27074 | 37155 ft | 497 kts | 129° |
| 2026-04-28 23:47 | 26.38623 | -102.20873 | 37185 ft | 496 kts | 129° |
| 2026-04-28 23:47 | 26.34563 | -102.14613 | 37206 ft | 496 kts | 129° |
| 2026-04-28 23:48 | 26.30513 | -102.08376 | 37225 ft | 496 kts | 129° |
| 2026-04-28 23:48 | 26.26484 | -102.02174 | 37261 ft | 495 kts | 129° |
| 2026-04-28 23:49 | 26.22432 | -101.95953 | 37279 ft | 496 kts | 129° |
| 2026-04-28 23:49 | 26.18379 | -101.89735 | 37253 ft | 497 kts | 129° |
| 2026-04-28 23:50 | 26.14346 | -101.83556 | 37210 ft | 496 kts | 129° |
| 2026-04-28 23:50 | 26.10265 | -101.77309 | 37194 ft | 496 kts | 129° |
| 2026-04-28 23:51 | 26.06214 | -101.71116 | 37184 ft | 496 kts | 129° |
| 2026-04-28 23:51 | 26.02161 | -101.64927 | 37205 ft | 496 kts | 129° |
| 2026-04-28 23:52 | 25.98093 | -101.58734 | 37238 ft | 496 kts | 129° |
| 2026-04-28 23:52 | 25.94020 | -101.52544 | 37261 ft | 495 kts | 129° |
| 2026-04-28 23:53 | 25.89971 | -101.46403 | 37255 ft | 496 kts | 128° |
| 2026-04-28 23:53 | 25.85871 | -101.40182 | 37213 ft | 496 kts | 128° |
| 2026-04-28 23:54 | 25.81799 | -101.34012 | 37183 ft | 497 kts | 129° |
| 2026-04-28 23:54 | 25.77694 | -101.27793 | 37158 ft | 497 kts | 129° |
| 2026-04-28 23:55 | 25.73605 | -101.21619 | 37135 ft | 497 kts | 128° |
| 2026-04-28 23:55 | 25.69511 | -101.15434 | 37141 ft | 496 kts | 129° |
| 2026-04-28 23:56 | 25.65429 | -101.09278 | 37141 ft | 496 kts | 129° |
| 2026-04-28 23:56 | 25.61348 | -101.03133 | 37148 ft | 497 kts | 128° |
| 2026-04-28 23:57 | 25.57273 | -100.97004 | 37169 ft | 496 kts | 129° |
| 2026-04-28 23:57 | 25.52886 | -100.91117 | 37195 ft | 492 kts | 136° |
| 2026-04-28 23:58 | 25.48041 | -100.85777 | 37236 ft | 491 kts | 139° |
| 2026-04-28 23:58 | 25.43142 | -100.80473 | 37283 ft | 492 kts | 139° |
| 2026-04-28 23:59 | 25.38265 | -100.75156 | 37306 ft | 493 kts | 139° |
| 2026-04-28 23:59 | 25.33395 | -100.69853 | 37337 ft | 492 kts | 139° |
| 2026-04-29 00:00 | 25.28524 | -100.64559 | 37375 ft | 492 kts | 139° |
| 2026-04-29 00:00 | 25.23656 | -100.59267 | 37390 ft | 491 kts | 139° |
| 2026-04-29 00:01 | 25.18782 | -100.53974 | 37393 ft | 489 kts | 138° |
| 2026-04-29 00:01 | 25.13909 | -100.48689 | 37382 ft | 490 kts | 138° |
| 2026-04-29 00:02 | 25.09056 | -100.43430 | 37383 ft | 491 kts | 138° |
| 2026-04-29 00:02 | 25.04193 | -100.38163 | 37392 ft | 490 kts | 138° |
| 2026-04-29 00:03 | 24.99311 | -100.32884 | 37425 ft | 490 kts | 139° |
| 2026-04-29 00:03 | 24.94426 | -100.27612 | 37436 ft | 490 kts | 139° |
| 2026-04-29 00:04 | 24.89541 | -100.22353 | 37434 ft | 490 kts | 139° |
| 2026-04-29 00:04 | 24.84623 | -100.17053 | 37387 ft | 490 kts | 139° |
| 2026-04-29 00:05 | 24.79741 | -100.11798 | 37342 ft | 491 kts | 139° |
| 2026-04-29 00:05 | 24.74874 | -100.06564 | 37319 ft | 489 kts | 139° |
| 2026-04-29 00:06 | 24.70016 | -100.01356 | 37312 ft | 490 kts | 138° |
| 2026-04-29 00:06 | 24.65113 | -99.96105 | 37298 ft | 491 kts | 138° |
| 2026-04-29 00:07 | 24.60227 | -99.90880 | 37293 ft | 491 kts | 139° |
| 2026-04-29 00:07 | 24.55318 | -99.85639 | 37273 ft | 491 kts | 138° |
| 2026-04-29 00:08 | 24.50431 | -99.80414 | 37244 ft | 491 kts | 138° |
| 2026-04-29 00:08 | 24.45505 | -99.75162 | 37217 ft | 491 kts | 137° |
| 2026-04-29 00:09 | 24.40627 | -99.69958 | 37189 ft | 491 kts | 137° |
| 2026-04-29 00:09 | 24.35730 | -99.64747 | 37129 ft | 490 kts | 137° |
| 2026-04-29 00:10 | 24.31579 | -99.60332 | 37114 ft | 489 kts | 138° |
| 2026-04-29 00:10 | 24.28164 | -99.56703 | 37057 ft | 490 kts | 138° |
| 2026-04-29 00:11 | 24.23282 | -99.51514 | 37012 ft | 489 kts | 136° |
| 2026-04-29 00:11 | 24.19577 | -99.45315 | 36984 ft | 491 kts | 108° |
| 2026-04-29 00:12 | 24.18665 | -99.41756 | 36988 ft | 489 kts | 100° |
| 2026-04-29 00:12 | 24.17279 | -99.34457 | 36965 ft | 490 kts | 99° |
| 2026-04-29 00:13 | 24.15930 | -99.27135 | 36924 ft | 490 kts | 99° |
| 2026-04-29 00:13 | 24.14595 | -99.19838 | 36878 ft | 489 kts | 98° |
| 2026-04-29 00:14 | 24.13260 | -99.12521 | 36852 ft | 487 kts | 98° |
| 2026-04-29 00:14 | 24.11935 | -99.05233 | 36833 ft | 487 kts | 99° |
| 2026-04-29 00:15 | 24.10515 | -98.98004 | 36811 ft | 489 kts | 107° |
| 2026-04-29 00:15 | 24.09170 | -98.94592 | 36820 ft | 491 kts | 118° |
| 2026-04-29 00:15 | 24.07408 | -98.91411 | 36825 ft | 492 kts | 122° |
| 2026-04-29 00:16 | 24.03400 | -98.85368 | 36821 ft | 491 kts | 132° |
| 2026-04-29 00:16 | 23.98487 | -98.80167 | 36817 ft | 489 kts | 143° |
| 2026-04-29 00:17 | 23.93140 | -98.75536 | 36824 ft | 489 kts | 143° |
| 2026-04-29 00:17 | 23.87778 | -98.70877 | 36829 ft | 490 kts | 143° |
| 2026-04-29 00:18 | 23.82410 | -98.66165 | 36849 ft | 491 kts | 142° |
| 2026-04-29 00:18 | 23.77066 | -98.61466 | 36863 ft | 491 kts | 142° |
| 2026-04-29 00:19 | 23.71732 | -98.56781 | 36888 ft | 492 kts | 142° |
| 2026-04-29 00:19 | 23.66441 | -98.52142 | 36908 ft | 492 kts | 142° |
| 2026-04-29 00:20 | 23.61072 | -98.47440 | 36925 ft | 492 kts | 142° |
| 2026-04-29 00:20 | 23.55731 | -98.42762 | 36923 ft | 492 kts | 142° |
| 2026-04-29 00:21 | 23.50394 | -98.38098 | 36922 ft | 492 kts | 142° |
| 2026-04-29 00:21 | 23.45042 | -98.33432 | 36919 ft | 492 kts | 142° |
| 2026-04-29 00:22 | 23.39661 | -98.28749 | 36928 ft | 493 kts | 142° |
| 2026-04-29 00:22 | 23.34302 | -98.24085 | 36932 ft | 494 kts | 142° |
| 2026-04-29 00:23 | 23.28978 | -98.19452 | 36931 ft | 493 kts | 142° |
| 2026-04-29 00:23 | 23.23583 | -98.14768 | 36931 ft | 493 kts | 142° |
| 2026-04-29 00:24 | 23.18181 | -98.10075 | 36926 ft | 495 kts | 142° |
| 2026-04-29 00:24 | 23.12793 | -98.05405 | 36927 ft | 495 kts | 142° |
| 2026-04-29 00:25 | 23.07370 | -98.00706 | 36926 ft | 495 kts | 142° |
| 2026-04-29 00:25 | 23.01996 | -97.96058 | 36933 ft | 495 kts | 141° |
| 2026-04-29 00:26 | 22.96596 | -97.91389 | 36923 ft | 495 kts | 142° |
| 2026-04-29 00:26 | 22.91194 | -97.86719 | 36912 ft | 496 kts | 142° |
| 2026-04-29 00:27 | 22.85778 | -97.82046 | 36897 ft | 495 kts | 141° |
| 2026-04-29 00:27 | 22.80388 | -97.77403 | 36887 ft | 494 kts | 141° |
| 2026-04-29 00:28 | 22.75009 | -97.72784 | 36884 ft | 493 kts | 141° |
| 2026-04-29 00:28 | 22.69610 | -97.68142 | 36885 ft | 493 kts | 141° |
| 2026-04-29 00:29 | 22.64241 | -97.63525 | 36889 ft | 493 kts | 141° |
| 2026-04-29 00:29 | 22.58868 | -97.58912 | 36884 ft | 493 kts | 141° |
| 2026-04-29 00:30 | 22.53503 | -97.54311 | 36881 ft | 492 kts | 141° |
| 2026-04-29 00:30 | 22.48157 | -97.49737 | 36876 ft | 492 kts | 141° |
| 2026-04-29 00:31 | 22.42793 | -97.45143 | 36870 ft | 491 kts | 141° |
| 2026-04-29 00:31 | 22.37438 | -97.40561 | 36865 ft | 490 kts | 140° |
| 2026-04-29 00:32 | 22.32068 | -97.35968 | 36866 ft | 490 kts | 140° |
| 2026-04-29 00:32 | 22.26752 | -97.31424 | 36863 ft | 489 kts | 141° |
| 2026-04-29 00:33 | 22.21428 | -97.26880 | 36867 ft | 488 kts | 141° |
| 2026-04-29 00:33 | 22.16094 | -97.22328 | 36862 ft | 489 kts | 141° |
| 2026-04-29 00:34 | 22.10740 | -97.17770 | 36861 ft | 488 kts | 141° |
| 2026-04-29 00:34 | 22.05409 | -97.13231 | 36863 ft | 488 kts | 141° |
| 2026-04-29 00:35 | 22.00116 | -97.08732 | 36862 ft | 487 kts | 141° |
| 2026-04-29 00:35 | 21.94759 | -97.04182 | 36864 ft | 487 kts | 141° |
| 2026-04-29 00:36 | 21.89443 | -96.99667 | 36861 ft | 486 kts | 141° |
| 2026-04-29 00:36 | 21.84128 | -96.95165 | 36864 ft | 486 kts | 141° |
| 2026-04-29 00:37 | 21.78788 | -96.90642 | 36868 ft | 486 kts | 141° |
| 2026-04-29 00:37 | 21.73489 | -96.86156 | 36869 ft | 487 kts | 141° |
| 2026-04-29 00:38 | 21.68164 | -96.81657 | 36871 ft | 487 kts | 141° |
| 2026-04-29 00:38 | 21.62844 | -96.77163 | 36870 ft | 487 kts | 141° |
| 2026-04-29 00:39 | 21.57487 | -96.72644 | 36871 ft | 488 kts | 140° |
| 2026-04-29 00:39 | 21.52165 | -96.68157 | 36875 ft | 488 kts | 140° |
| 2026-04-29 00:40 | 21.46808 | -96.63648 | 36879 ft | 488 kts | 140° |
| 2026-04-29 00:40 | 21.41498 | -96.59179 | 36881 ft | 488 kts | 140° |
| 2026-04-29 00:41 | 21.36145 | -96.54684 | 36882 ft | 487 kts | 140° |
| 2026-04-29 00:41 | 21.30824 | -96.50214 | 36883 ft | 486 kts | 140° |
| 2026-04-29 00:42 | 21.25502 | -96.45750 | 36882 ft | 486 kts | 140° |
| 2026-04-29 00:42 | 21.20172 | -96.41284 | 36884 ft | 485 kts | 140° |
| 2026-04-29 00:43 | 21.14860 | -96.36832 | 36885 ft | 485 kts | 140° |
| 2026-04-29 00:43 | 21.09570 | -96.32407 | 36881 ft | 485 kts | 140° |
| 2026-04-29 00:44 | 21.04213 | -96.27930 | 36884 ft | 485 kts | 140° |
| 2026-04-29 00:44 | 20.98924 | -96.23516 | 36884 ft | 483 kts | 140° |
| 2026-04-29 00:45 | 20.93637 | -96.19107 | 36884 ft | 481 kts | 140° |
| 2026-04-29 00:45 | 20.88336 | -96.14690 | 36882 ft | 480 kts | 140° |
| 2026-04-29 00:46 | 20.83106 | -96.10336 | 36885 ft | 478 kts | 140° |
| 2026-04-29 00:46 | 20.77856 | -96.05964 | 36879 ft | 479 kts | 140° |
| 2026-04-29 00:47 | 20.72578 | -96.01577 | 36881 ft | 479 kts | 140° |
| 2026-04-29 00:47 | 20.67299 | -95.97195 | 36879 ft | 479 kts | 140° |
| 2026-04-29 00:48 | 20.62050 | -95.92841 | 36872 ft | 477 kts | 140° |
| 2026-04-29 00:48 | 20.56826 | -95.88510 | 36871 ft | 476 kts | 140° |
| 2026-04-29 00:49 | 20.51583 | -95.84171 | 36874 ft | 475 kts | 140° |
| 2026-04-29 00:49 | 20.46362 | -95.79850 | 36874 ft | 476 kts | 140° |
| 2026-04-29 00:50 | 20.41132 | -95.75524 | 36876 ft | 475 kts | 140° |
| 2026-04-29 00:50 | 20.35930 | -95.71226 | 36881 ft | 475 kts | 140° |
| 2026-04-29 00:51 | 20.30704 | -95.66915 | 36878 ft | 475 kts | 140° |
| 2026-04-29 00:51 | 20.25476 | -95.62605 | 36878 ft | 474 kts | 140° |
| 2026-04-29 00:52 | 20.20263 | -95.58309 | 36882 ft | 474 kts | 140° |
| 2026-04-29 00:52 | 20.15030 | -95.54002 | 36882 ft | 474 kts | 139° |
| 2026-04-29 00:53 | 20.09834 | -95.49730 | 36883 ft | 473 kts | 139° |
| 2026-04-29 00:53 | 20.04629 | -95.45454 | 36882 ft | 473 kts | 139° |
| 2026-04-29 00:54 | 19.99420 | -95.41177 | 36879 ft | 472 kts | 139° |
| 2026-04-29 00:54 | 19.94206 | -95.36900 | 36879 ft | 472 kts | 139° |
| 2026-04-29 00:55 | 19.89016 | -95.32643 | 36875 ft | 471 kts | 139° |
| 2026-04-29 00:55 | 19.83813 | -95.28383 | 36878 ft | 471 kts | 139° |
| 2026-04-29 00:56 | 19.78643 | -95.24153 | 36879 ft | 470 kts | 139° |
| 2026-04-29 00:56 | 19.73468 | -95.19920 | 36879 ft | 469 kts | 139° |
| 2026-04-29 00:57 | 19.68287 | -95.15689 | 36878 ft | 468 kts | 139° |
| 2026-04-29 00:57 | 19.63124 | -95.11471 | 36880 ft | 468 kts | 139° |
| 2026-04-29 00:58 | 19.57978 | -95.07271 | 36881 ft | 466 kts | 139° |
| 2026-04-29 00:58 | 19.52847 | -95.03088 | 36885 ft | 466 kts | 139° |
| 2026-04-29 00:59 | 19.47862 | -94.98660 | 36886 ft | 462 kts | 133° |
| 2026-04-29 00:59 | 19.43362 | -94.93843 | 36886 ft | 461 kts | 130° |
| 2026-04-29 01:00 | 19.38878 | -94.88937 | 36887 ft | 461 kts | 130° |
| 2026-04-29 01:00 | 19.34412 | -94.84060 | 36887 ft | 459 kts | 130° |
| 2026-04-29 01:01 | 19.29952 | -94.79200 | 36887 ft | 460 kts | 130° |
| 2026-04-29 01:01 | 19.25483 | -94.74344 | 36889 ft | 459 kts | 130° |
| 2026-04-29 01:02 | 19.20995 | -94.69467 | 36890 ft | 459 kts | 130° |
| 2026-04-29 01:02 | 19.16555 | -94.64645 | 36890 ft | 460 kts | 129° |
| 2026-04-29 01:03 | 19.12077 | -94.59784 | 36886 ft | 459 kts | 130° |
| 2026-04-29 01:03 | 19.07613 | -94.54948 | 36879 ft | 458 kts | 129° |
| 2026-04-29 01:04 | 19.03165 | -94.50128 | 36881 ft | 459 kts | 130° |
| 2026-04-29 01:04 | 18.98677 | -94.45275 | 36873 ft | 459 kts | 129° |
| 2026-04-29 01:05 | 18.94209 | -94.40443 | 36869 ft | 459 kts | 129° |
| 2026-04-29 01:05 | 18.89746 | -94.35626 | 36864 ft | 458 kts | 129° |
| 2026-04-29 01:06 | 18.85211 | -94.30727 | 36862 ft | 458 kts | 130° |
| 2026-04-29 01:06 | 18.80742 | -94.25909 | 36861 ft | 458 kts | 129° |
| 2026-04-29 01:07 | 18.76262 | -94.21081 | 36862 ft | 458 kts | 129° |
| 2026-04-29 01:07 | 18.71818 | -94.16294 | 36863 ft | 458 kts | 129° |
| 2026-04-29 01:08 | 18.67346 | -94.11484 | 36862 ft | 457 kts | 129° |
| 2026-04-29 01:08 | 18.62887 | -94.06692 | 36859 ft | 457 kts | 129° |
| 2026-04-29 01:09 | 18.58392 | -94.01865 | 36859 ft | 457 kts | 129° |
| 2026-04-29 01:09 | 18.53935 | -93.97079 | 36861 ft | 457 kts | 129° |
| 2026-04-29 01:10 | 18.49487 | -93.92311 | 36863 ft | 455 kts | 129° |
| 2026-04-29 01:10 | 18.45045 | -93.87549 | 36867 ft | 457 kts | 129° |
| 2026-04-29 01:11 | 18.40585 | -93.82772 | 36867 ft | 456 kts | 129° |
| 2026-04-29 01:11 | 18.36103 | -93.77978 | 36864 ft | 454 kts | 129° |
| 2026-04-29 01:12 | 18.31686 | -93.73257 | 36864 ft | 454 kts | 129° |
| 2026-04-29 01:12 | 18.27666 | -93.68960 | 36861 ft | 453 kts | 129° |
| 2026-04-29 01:13 | 18.23220 | -93.64215 | 36862 ft | 453 kts | 129° |
| 2026-04-29 01:13 | 18.18770 | -93.59467 | 36855 ft | 453 kts | 129° |
| 2026-04-29 01:14 | 18.14332 | -93.54739 | 36857 ft | 453 kts | 129° |
| 2026-04-29 01:14 | 18.09902 | -93.50020 | 36861 ft | 452 kts | 129° |
| 2026-04-29 01:15 | 18.05475 | -93.45311 | 36865 ft | 453 kts | 129° |
| 2026-04-29 01:15 | 18.01050 | -93.40602 | 36859 ft | 453 kts | 129° |
| 2026-04-29 01:16 | 17.96601 | -93.35873 | 36866 ft | 453 kts | 129° |
| 2026-04-29 01:16 | 17.92116 | -93.31115 | 36865 ft | 452 kts | 129° |
| 2026-04-29 01:17 | 17.87604 | -93.26326 | 36872 ft | 452 kts | 129° |
| 2026-04-29 01:17 | 17.83089 | -93.21541 | 36869 ft | 452 kts | 129° |
| 2026-04-29 01:18 | 17.78645 | -93.16831 | 36881 ft | 453 kts | 129° |
| 2026-04-29 01:18 | 17.71993 | -93.09792 | 36883 ft | 453 kts | 130° |
| 2026-04-29 01:19 | 17.67547 | -93.05095 | 36885 ft | 453 kts | 130° |
| 2026-04-29 01:19 | 17.63078 | -93.00379 | 36888 ft | 453 kts | 129° |
| 2026-04-29 01:20 | 17.58609 | -92.95657 | 36895 ft | 453 kts | 129° |
| 2026-04-29 01:20 | 17.54145 | -92.90943 | 36909 ft | 453 kts | 129° |
| 2026-04-29 01:21 | 17.49726 | -92.86285 | 36933 ft | 452 kts | 129° |
| 2026-04-29 01:21 | 17.45259 | -92.81577 | 36952 ft | 452 kts | 130° |
| 2026-04-29 01:22 | 17.40794 | -92.76876 | 36971 ft | 453 kts | 129° |
| 2026-04-29 01:22 | 17.36317 | -92.72167 | 36999 ft | 453 kts | 129° |
| 2026-04-29 01:23 | 17.31879 | -92.67501 | 37028 ft | 452 kts | 130° |
| 2026-04-29 01:23 | 17.27425 | -92.62824 | 37045 ft | 452 kts | 129° |
| 2026-04-29 01:24 | 17.22982 | -92.58159 | 37087 ft | 452 kts | 130° |
| 2026-04-29 01:24 | 17.18547 | -92.53509 | 37123 ft | 453 kts | 130° |
| 2026-04-29 01:25 | 17.14083 | -92.48830 | 37148 ft | 452 kts | 130° |
| 2026-04-29 01:25 | 17.09662 | -92.44203 | 37149 ft | 451 kts | 129° |
| 2026-04-29 01:26 | 17.05209 | -92.39538 | 37169 ft | 453 kts | 130° |
| 2026-04-29 01:26 | 17.00740 | -92.34869 | 37200 ft | 452 kts | 130° |
| 2026-04-29 01:27 | 16.96252 | -92.30177 | 37231 ft | 452 kts | 130° |
| 2026-04-29 01:27 | 16.91834 | -92.25562 | 37246 ft | 451 kts | 130° |
| 2026-04-29 01:28 | 16.89879 | -92.23520 | 37254 ft | 451 kts | 130° |
| 2026-04-29 01:29 | 16.84354 | -92.17755 | 37249 ft | 452 kts | 130° |
| 2026-04-29 01:29 | 16.79865 | -92.13078 | 37246 ft | 452 kts | 130° |
| 2026-04-29 01:30 | 16.75417 | -92.08446 | 37240 ft | 453 kts | 130° |
| 2026-04-29 01:30 | 16.70948 | -92.03793 | 37228 ft | 453 kts | 130° |
| 2026-04-29 01:31 | 16.66459 | -91.99124 | 37214 ft | 452 kts | 130° |
| 2026-04-29 01:31 | 16.62002 | -91.94492 | 37214 ft | 452 kts | 130° |
| 2026-04-29 01:32 | 16.57542 | -91.89861 | 37204 ft | 451 kts | 130° |
| 2026-04-29 01:32 | 16.53079 | -91.85221 | 37209 ft | 451 kts | 130° |
| 2026-04-29 01:33 | 16.48629 | -91.80608 | 37203 ft | 451 kts | 130° |
| 2026-04-29 01:33 | 16.44179 | -91.75992 | 37194 ft | 450 kts | 131° |
| 2026-04-29 01:34 | 16.39725 | -91.71378 | 37183 ft | 450 kts | 130° |
| 2026-04-29 01:34 | 16.35257 | -91.66754 | 37166 ft | 450 kts | 131° |
| 2026-04-29 01:35 | 16.30826 | -91.62167 | 37119 ft | 449 kts | 130° |
| 2026-04-29 01:35 | 16.26369 | -91.57561 | 37102 ft | 448 kts | 131° |
| 2026-04-29 01:36 | 16.21933 | -91.52975 | 37051 ft | 449 kts | 131° |
| 2026-04-29 01:36 | 16.17498 | -91.48391 | 36789 ft | 449 kts | 131° |
| 2026-04-29 01:37 | 16.15270 | -91.46095 | 36503 ft | 446 kts | 130° |
| 2026-04-29 01:37 | 16.13077 | -91.43834 | 36117 ft | 443 kts | 130° |
| 2026-04-29 01:37 | 16.10854 | -91.41585 | 35649 ft | 441 kts | 131° |
| 2026-04-29 01:37 | 16.08523 | -91.39465 | 35029 ft | 444 kts | 134° |
| 2026-04-29 01:38 | 16.06080 | -91.37499 | 34372 ft | 447 kts | 137° |
| 2026-04-29 01:38 | 16.03472 | -91.35658 | 33761 ft | 453 kts | 140° |
| 2026-04-29 01:38 | 16.00735 | -91.33923 | 33086 ft | 456 kts | 141° |
| 2026-04-29 01:38 | 15.97969 | -91.32201 | 32347 ft | 459 kts | 141° |
| 2026-04-29 01:39 | 15.95177 | -91.30459 | 31571 ft | 463 kts | 141° |
| 2026-04-29 01:39 | 15.92415 | -91.28732 | 30826 ft | 466 kts | 142° |
| 2026-04-29 01:39 | 15.89612 | -91.26982 | 30068 ft | 468 kts | 142° |
| 2026-04-29 01:39 | 15.86774 | -91.25211 | 29278 ft | 470 kts | 143° |
| 2026-04-29 01:40 | 15.83979 | -91.23471 | 28623 ft | 469 kts | 143° |
| 2026-04-29 01:40 | 15.81100 | -91.21685 | 28117 ft | 463 kts | 143° |
| 2026-04-29 01:40 | 15.78288 | -91.19940 | 27628 ft | 458 kts | 143° |
| 2026-04-29 01:40 | 15.75544 | -91.18233 | 27114 ft | 454 kts | 144° |
| 2026-04-29 01:41 | 15.72835 | -91.16550 | 26617 ft | 449 kts | 144° |
| 2026-04-29 01:41 | 15.70152 | -91.14884 | 26144 ft | 445 kts | 144° |
| 2026-04-29 01:41 | 15.67476 | -91.13220 | 25669 ft | 440 kts | 144° |
| 2026-04-29 01:41 | 15.64852 | -91.11590 | 25189 ft | 436 kts | 144° |
| 2026-04-29 01:42 | 15.62199 | -91.09941 | 24705 ft | 432 kts | 144° |
| 2026-04-29 01:42 | 15.59627 | -91.08341 | 24247 ft | 428 kts | 145° |
| 2026-04-29 01:42 | 15.57029 | -91.06728 | 23767 ft | 424 kts | 145° |
| 2026-04-29 01:42 | 15.54500 | -91.05156 | 23295 ft | 420 kts | 145° |
| 2026-04-29 01:43 | 15.51992 | -91.03598 | 22818 ft | 417 kts | 146° |
| 2026-04-29 01:43 | 15.49488 | -91.02042 | 22340 ft | 414 kts | 146° |
| 2026-04-29 01:43 | 15.47011 | -91.00505 | 21844 ft | 411 kts | 145° |
| 2026-04-29 01:43 | 15.44522 | -90.98965 | 21341 ft | 409 kts | 145° |
| 2026-04-29 01:44 | 15.42091 | -90.97458 | 20840 ft | 406 kts | 145° |
| 2026-04-29 01:44 | 15.39673 | -90.95959 | 20339 ft | 403 kts | 145° |
| 2026-04-29 01:44 | 15.37266 | -90.94467 | 19837 ft | 400 kts | 145° |
| 2026-04-29 01:44 | 15.34884 | -90.92992 | 19346 ft | 397 kts | 145° |
| 2026-04-29 01:45 | 15.32515 | -90.91527 | 18862 ft | 394 kts | 144° |
| 2026-04-29 01:45 | 15.30121 | -90.90046 | 18361 ft | 391 kts | 144° |
| 2026-04-29 01:45 | 15.27783 | -90.88601 | 17869 ft | 389 kts | 144° |
| 2026-04-29 01:45 | 15.25442 | -90.87154 | 17372 ft | 386 kts | 144° |
| 2026-04-29 01:46 | 15.23092 | -90.85701 | 16889 ft | 384 kts | 144° |
| 2026-04-29 01:46 | 15.20774 | -90.84267 | 16381 ft | 382 kts | 144° |
| 2026-04-29 01:46 | 15.18445 | -90.82825 | 15891 ft | 380 kts | 144° |
| 2026-04-29 01:46 | 15.16174 | -90.81422 | 15398 ft | 378 kts | 145° |
| 2026-04-29 01:47 | 15.13940 | -90.80040 | 14904 ft | 376 kts | 144° |
| 2026-04-29 01:47 | 15.11688 | -90.78649 | 14415 ft | 373 kts | 144° |
| 2026-04-29 01:47 | 15.09394 | -90.77232 | 13913 ft | 371 kts | 145° |
| 2026-04-29 01:47 | 15.07172 | -90.75859 | 13430 ft | 368 kts | 145° |
| 2026-04-29 01:48 | 15.04960 | -90.74493 | 12934 ft | 366 kts | 145° |
| 2026-04-29 01:48 | 15.02768 | -90.73141 | 12449 ft | 363 kts | 146° |
| 2026-04-29 01:48 | 15.00578 | -90.71790 | 11979 ft | 361 kts | 146° |
| 2026-04-29 01:48 | 14.98419 | -90.70458 | 11497 ft | 359 kts | 146° |
| 2026-04-29 01:49 | 14.96285 | -90.69144 | 11154 ft | 349 kts | 146° |
| 2026-04-29 01:49 | 14.94211 | -90.67866 | 10679 ft | 333 kts | 147° |
| 2026-04-29 01:49 | 14.92265 | -90.66671 | 10465 ft | 307 kts | 146° |
| 2026-04-29 01:49 | 14.90462 | -90.65562 | 10301 ft | 293 kts | 146° |
| 2026-04-29 01:50 | 14.88729 | -90.64494 | 10169 ft | 284 kts | 146° |
| 2026-04-29 01:50 | 14.87036 | -90.63451 | 9910 ft | 283 kts | 146° |
| 2026-04-29 01:50 | 14.85333 | -90.62380 | 9527 ft | 284 kts | 144° |
| 2026-04-29 01:50 | 14.83742 | -90.61149 | 9161 ft | 283 kts | 137° |
| 2026-04-29 01:51 | 14.82315 | -90.59737 | 8800 ft | 281 kts | 130° |
| 2026-04-29 01:51 | 14.81092 | -90.58183 | 8528 ft | 275 kts | 123° |
| 2026-04-29 01:51 | 14.80023 | -90.56596 | 8487 ft | 261 kts | 122° |
| 2026-04-29 01:51 | 14.79022 | -90.55080 | 8445 ft | 247 kts | 122° |
| 2026-04-29 01:52 | 14.78077 | -90.53645 | 8395 ft | 234 kts | 122° |
| 2026-04-29 01:52 | 14.77179 | -90.52290 | 8345 ft | 221 kts | 122° |
| 2026-04-29 01:52 | 14.76593 | -90.51427 | 8302 ft | 217 kts | 127° |
| 2026-04-29 01:52 | 14.75166 | -90.50036 | 8209 ft | 203 kts | 143° |
| 2026-04-29 01:53 | 14.73954 | -90.49353 | 8042 ft | 194 kts | 156° |
| 2026-04-29 01:53 | 14.72685 | -90.48958 | 7819 ft | 181 kts | 167° |
| 2026-04-29 01:53 | 14.71452 | -90.48835 | 7557 ft | 170 kts | 178° |
| 2026-04-29 01:53 | 14.70312 | -90.48937 | 7298 ft | 158 kts | 188° |
| 2026-04-29 01:54 | 14.69284 | -90.49207 | 7068 ft | 149 kts | 195° |
| 2026-04-29 01:54 | 14.68285 | -90.49533 | 6871 ft | 149 kts | 196° |
| 2026-04-29 01:54 | 14.67294 | -90.49859 | 6666 ft | 148 kts | 196° |
| 2026-04-29 01:54 | 14.66319 | -90.50178 | 6460 ft | 146 kts | 196° |
| 2026-04-29 01:55 | 14.65350 | -90.50492 | 6255 ft | 145 kts | 196° |
| 2026-04-29 01:55 | 14.64385 | -90.50804 | 6051 ft | 143 kts | 196° |
| 2026-04-29 01:55 | 14.63436 | -90.51110 | 5852 ft | 143 kts | 196° |
| 2026-04-29 01:55 | 14.62481 | -90.51413 | 5637 ft | 142 kts | 196° |
| 2026-04-29 01:56 | 14.61541 | -90.51710 | 5443 ft | 141 kts | 196° |
| 2026-04-29 01:56 | 14.60599 | -90.52009 | 5244 ft | 140 kts | 197° |
| 2026-04-29 01:56 | 14.59662 | -90.52315 | 5034 ft | 140 kts | 197° |
| 2026-04-29 01:56 | 14.58735 | -90.52617 | 4901 ft | 129 kts | 198° |
| 2026-04-29 01:57 | 14.57995 | -90.52854 | 4870 ft | 83 kts | 197° |
| 2026-04-29 01:57 | 14.57594 | -90.52983 | 4878 ft | 36 kts | 198° |
| 2026-04-29 01:57 | 14.57441 | -90.53046 | 4880 ft | 13 kts | 243° |
| 2026-04-29 01:57 | 14.57481 | -90.53089 | 4880 ft | 10 kts | 9° |
| 2026-04-29 01:58 | 14.57560 | -90.53065 | 4878 ft | 13 kts | 17° |
| 2026-04-29 01:58 | 14.57657 | -90.53033 | 4876 ft | 17 kts | 18° |
| 2026-04-29 01:58 | 14.57795 | -90.52989 | 4873 ft | 21 kts | 17° |
| 2026-04-29 01:58 | 14.57848 | -90.52972 | 4872 ft | 22 kts | 18° |
| 2026-04-29 01:59 | 14.57864 | -90.52966 | 4871 ft | 22 kts | 17° |
| 2026-04-29 02:00 | 14.57981 | -90.52929 | 4870 ft | 22 kts | 17° |
| 2026-04-29 02:00 | 14.58127 | -90.52882 | 4870 ft | 21 kts | 17° |
| 2026-04-29 02:00 | 14.58257 | -90.52840 | 4875 ft | 18 kts | 17° |
| 2026-04-29 02:00 | 14.58368 | -90.52805 | 4881 ft | 16 kts | 17° |
| 2026-04-29 02:01 | 14.58479 | -90.52769 | 4887 ft | 17 kts | 18° |
| 2026-04-29 02:01 | 14.58599 | -90.52731 | 4892 ft | 18 kts | 17° |
| 2026-04-29 02:01 | 14.58695 | -90.52757 | 4900 ft | 12 kts | 291° |
| 2026-04-29 02:01 | 14.58726 | -90.52807 | 4907 ft | 7 kts | 320° |
| 2026-04-29 02:02 | 14.58789 | -90.52817 | 4908 ft | 11 kts | 12° |
| 2026-04-29 02:02 | 14.58866 | -90.52791 | 4908 ft | 12 kts | 18° |
| 2026-04-29 02:02 | 14.58949 | -90.52766 | 4908 ft | 12 kts | 16° |
| 2026-04-29 02:02 | 14.58992 | -90.52784 | 4908 ft | 7 kts | 285° |
| 2026-04-29 02:03 | 14.59006 | -90.52831 | 4908 ft | 4 kts | 286° |
| 2026-04-29 02:03 | 14.59010 | -90.52845 | 4908 ft | 0 kts | 286° |